createdAt,value
2019-01-30T00:00:47.960Z,99.99
2019-01-30T00:01:47.958Z,99.99
2019-01-30T00:02:47.964Z,99.99
2019-01-30T00:03:47.968Z,99.99
2019-01-30T00:04:47.916Z,99.99
2019-01-30T00:05:47.931Z,99.99
2019-01-30T00:06:47.886Z,99.99
2019-01-30T00:07:47.902Z,99.99
2019-01-30T00:08:47.867Z,99.99
2019-01-30T00:09:47.872Z,99.99
2019-01-30T00:10:47.847Z,99.99
2019-01-30T00:11:47.843Z,99.99
2019-01-30T00:12:47.870Z,99.99
2019-01-30T00:13:47.810Z,99.99
2019-01-30T00:14:47.841Z,99.99
2019-01-30T00:15:56.221Z,99.99
2019-01-30T00:16:47.811Z,99.99
2019-01-30T00:17:47.769Z,99.99
2019-01-30T00:18:47.784Z,99.99
2019-01-30T00:19:47.736Z,99.99
2019-01-30T00:20:47.735Z,99.99
2019-01-30T00:21:47.714Z,99.99
2019-01-30T00:22:47.731Z,99.99
2019-01-30T00:23:47.685Z,99.99
2019-01-30T00:24:47.688Z,99.99
2019-01-30T00:25:47.676Z,99.99
2019-01-30T00:26:47.688Z,99.99
2019-01-30T00:27:47.646Z,99.99
2019-01-30T00:28:47.662Z,99.99
2019-01-30T00:29:47.630Z,99.99
2019-01-30T00:30:47.610Z,99.99
2019-01-30T00:31:47.606Z,99.99
2019-01-30T00:32:47.594Z,99.99
2019-01-30T00:33:47.578Z,99.99
2019-01-30T00:34:47.569Z,99.99
2019-01-30T00:35:47.601Z,99.99
2019-01-30T00:36:47.542Z,99.99
2019-01-30T00:37:47.542Z,99.99
2019-01-30T00:38:47.518Z,99.99
2019-01-30T00:39:47.514Z,99.99
2019-01-30T00:40:47.487Z,99.99
2019-01-30T00:41:47.509Z,99.99
2019-01-30T00:42:47.469Z,99.99
2019-01-30T00:43:47.457Z,99.99
2019-01-30T00:44:47.437Z,99.99
2019-01-30T00:45:47.431Z,99.99
2019-01-30T00:46:47.417Z,99.99
2019-01-30T00:47:47.407Z,99.99
2019-01-30T00:48:47.407Z,99.99
2019-01-30T00:49:47.387Z,99.99
2019-01-30T00:50:47.377Z,99.99
2019-01-30T00:51:47.359Z,99.99
2019-01-30T00:52:47.399Z,99.99
2019-01-30T00:53:47.343Z,99.99
2019-01-30T00:54:47.366Z,99.99
2019-01-30T00:55:47.316Z,99.99
2019-01-30T00:56:47.346Z,99.99
2019-01-30T00:57:47.295Z,99.99
2019-01-30T00:58:47.329Z,99.99
2019-01-30T00:59:47.262Z,99.99
2019-01-30T01:00:47.285Z,99.99
2019-01-30T01:01:47.268Z,99.99
2019-01-30T01:02:47.252Z,99.99
2019-01-30T01:03:47.217Z,99.99
2019-01-30T01:04:47.210Z,99.99
2019-01-30T01:05:47.187Z,99.99
2019-01-30T01:06:47.210Z,99.99
2019-01-30T01:07:47.228Z,99.99
2019-01-30T01:08:47.179Z,99.99
2019-01-30T01:09:47.145Z,99.99
2019-01-30T01:10:47.149Z,99.99
2019-01-30T01:11:47.121Z,99.99
2019-01-30T01:12:47.110Z,99.99
2019-01-30T01:13:47.119Z,99.99
2019-01-30T01:14:47.093Z,99.99
2019-01-30T01:15:47.119Z,99.99
2019-01-30T01:16:47.063Z,99.99
2019-01-30T01:17:47.070Z,99.99
2019-01-30T01:18:47.042Z,99.99
2019-01-30T01:19:47.025Z,99.99
2019-01-30T01:20:47.014Z,99.99
2019-01-30T01:21:47.004Z,99.99
2019-01-30T01:22:47.019Z,99.99
2019-01-30T01:23:47.014Z,99.99
2019-01-30T01:24:46.958Z,99.99
2019-01-30T01:25:46.986Z,99.99
2019-01-30T01:26:46.936Z,99.99
2019-01-30T01:27:46.951Z,99.99
2019-01-30T01:28:46.916Z,99.99
2019-01-30T01:29:46.920Z,99.99
2019-01-30T01:30:46.889Z,99.99
2019-01-30T01:31:46.897Z,99.99
2019-01-30T01:32:46.981Z,99.99
2019-01-30T01:33:46.871Z,99.99
2019-01-30T01:34:46.844Z,99.99
2019-01-30T01:35:46.828Z,99.99
2019-01-30T01:36:46.821Z,99.99
2019-01-30T01:37:46.826Z,99.99
2019-01-30T01:38:46.794Z,99.99
2019-01-30T01:39:46.790Z,99.99
2019-01-30T01:40:46.798Z,99.99
2019-01-30T01:41:46.763Z,99.99
2019-01-30T01:42:46.783Z,99.99
2019-01-30T01:43:46.739Z,99.99
2019-01-30T01:44:46.739Z,99.99
2019-01-30T01:45:46.708Z,99.99
2019-01-30T01:46:46.728Z,99.99
2019-01-30T01:47:46.686Z,99.99
2019-01-30T01:48:46.698Z,99.99
2019-01-30T01:49:46.654Z,99.99
2019-01-30T01:50:46.654Z,99.99
2019-01-30T01:51:46.633Z,99.99
2019-01-30T01:52:46.625Z,99.99
2019-01-30T01:53:46.606Z,99.99
2019-01-30T01:54:46.616Z,99.99
2019-01-30T01:55:46.588Z,99.99
2019-01-30T01:56:46.591Z,99.99
2019-01-30T01:57:46.567Z,99.99
2019-01-30T01:58:46.562Z,99.99
2019-01-30T01:59:46.538Z,99.99
2019-01-30T02:00:46.518Z,99.99
2019-01-30T02:01:46.521Z,99.99
2019-01-30T02:02:46.509Z,99.99
2019-01-30T02:03:46.514Z,99.99
2019-01-30T02:04:46.477Z,99.99
2019-01-30T02:05:46.505Z,99.99
2019-01-30T02:06:46.458Z,99.99
2019-01-30T02:07:46.437Z,99.99
2019-01-30T02:08:46.433Z,99.99
2019-01-30T02:09:46.459Z,99.99
2019-01-30T02:10:46.402Z,99.99
2019-01-30T02:11:46.424Z,99.99
2019-01-30T02:12:46.385Z,99.99
2019-01-30T02:13:46.392Z,99.99
2019-01-30T02:14:46.349Z,99.99
2019-01-30T02:15:46.368Z,99.99
2019-01-30T02:16:46.322Z,99.99
2019-01-30T02:17:46.319Z,99.99
2019-01-30T02:18:46.298Z,99.99
2019-01-30T02:19:46.309Z,99.99
2019-01-30T02:20:46.293Z,99.99
2019-01-30T02:21:46.284Z,99.99
2019-01-30T02:22:46.252Z,99.99
2019-01-30T02:23:46.248Z,99.99
2019-01-30T02:24:46.228Z,99.99
2019-01-30T02:25:46.218Z,99.99
2019-01-30T02:26:46.213Z,99.99
2019-01-30T02:27:46.201Z,99.99
2019-01-30T02:28:46.209Z,99.99
2019-01-30T02:29:46.175Z,99.99
2019-01-30T02:30:47.595Z,99.99
2019-01-30T02:31:46.151Z,99.99
2019-01-30T02:32:46.150Z,99.99
2019-01-30T02:33:46.123Z,99.99
2019-01-30T02:34:46.142Z,99.99
2019-01-30T02:35:46.099Z,99.99
2019-01-30T02:36:46.208Z,99.99
2019-01-30T02:37:46.068Z,99.99
2019-01-30T02:38:46.085Z,99.99
2019-01-30T02:39:46.042Z,99.99
2019-01-30T02:40:46.045Z,99.99
2019-01-30T02:41:46.013Z,99.99
2019-01-30T02:42:46.039Z,99.99
2019-01-30T02:43:45.990Z,99.99
2019-01-30T02:44:45.986Z,99.99
2019-01-30T02:45:45.988Z,99.99
2019-01-30T02:46:45.980Z,99.99
2019-01-30T02:47:45.938Z,99.99
2019-01-30T02:48:45.949Z,99.99
2019-01-30T02:49:45.928Z,99.99
2019-01-30T02:50:45.905Z,99.99
2019-01-30T02:51:45.914Z,99.99
2019-01-30T02:52:45.900Z,99.99
2019-01-30T02:53:45.872Z,99.99
2019-01-30T02:54:45.970Z,99.99
2019-01-30T02:55:45.877Z,99.99
2019-01-30T02:56:45.827Z,99.99
2019-01-30T02:57:45.818Z,99.99
2019-01-30T02:58:45.811Z,99.99
2019-01-30T02:59:45.842Z,99.99
2019-01-30T03:00:45.782Z,99.99
2019-01-30T03:01:45.812Z,99.99
2019-01-30T03:02:45.760Z,99.99
2019-01-30T03:03:45.783Z,99.99
2019-01-30T03:04:45.732Z,99.99
2019-01-30T03:05:45.751Z,99.99
2019-01-30T03:06:45.706Z,99.99
2019-01-30T03:07:45.726Z,99.99
2019-01-30T03:08:45.676Z,99.99
2019-01-30T03:09:45.695Z,99.99
2019-01-30T03:10:45.683Z,99.99
2019-01-30T03:11:45.666Z,99.99
2019-01-30T03:12:45.654Z,99.99
2019-01-30T03:13:45.639Z,99.99
2019-01-30T03:14:45.623Z,99.99
2019-01-30T03:15:45.592Z,99.99
2019-01-30T03:16:45.599Z,99.99
2019-01-30T03:17:45.568Z,99.99
2019-01-30T03:18:45.556Z,99.99
2019-01-30T03:19:45.557Z,99.99
2019-01-30T03:20:45.590Z,99.99
2019-01-30T03:21:45.536Z,99.99
2019-01-30T03:22:45.503Z,99.99
2019-01-30T03:23:45.503Z,99.99
2019-01-30T03:24:45.489Z,99.99
2019-01-30T03:25:45.470Z,99.99
2019-01-30T03:26:45.502Z,99.99
2019-01-30T03:27:45.443Z,99.99
2019-01-30T03:28:45.476Z,99.99
2019-01-30T03:29:45.418Z,99.99
2019-01-30T03:30:45.448Z,99.99
2019-01-30T03:31:45.411Z,99.99
2019-01-30T03:32:45.419Z,99.99
2019-01-30T03:33:45.369Z,99.99
2019-01-30T03:34:45.398Z,99.99
2019-01-30T03:35:45.342Z,99.99
2019-01-30T03:36:45.362Z,99.99
2019-01-30T03:37:45.324Z,99.99
2019-01-30T03:38:45.322Z,99.99
2019-01-30T03:39:45.286Z,99.99
2019-01-30T03:40:45.306Z,99.99
2019-01-30T03:41:45.261Z,99.99
2019-01-30T03:42:45.280Z,99.99
2019-01-30T03:43:45.245Z,99.99
2019-01-30T03:44:45.264Z,99.99
2019-01-30T03:45:45.234Z,99.99
2019-01-30T03:46:45.229Z,99.99
2019-01-30T03:47:45.185Z,99.99
2019-01-30T03:48:45.175Z,99.99
2019-01-30T03:49:45.163Z,99.99
2019-01-30T03:50:45.163Z,99.99
2019-01-30T03:51:45.144Z,99.99
2019-01-30T03:52:45.141Z,99.99
2019-01-30T03:53:45.145Z,99.99
2019-01-30T03:54:45.117Z,99.99
2019-01-30T03:55:45.107Z,99.99
2019-01-30T03:56:45.084Z,99.99
2019-01-30T03:57:45.128Z,99.99
2019-01-30T03:58:45.050Z,99.99
2019-01-30T03:59:45.082Z,99.99
2019-01-30T04:00:45.032Z,99.99
2019-01-30T04:01:45.060Z,99.99
2019-01-30T04:02:45.007Z,99.99
2019-01-30T04:03:45.024Z,99.99
2019-01-30T04:04:44.978Z,99.99
2019-01-30T04:05:45.000Z,99.99
2019-01-30T04:06:44.949Z,99.99
2019-01-30T04:07:44.949Z,99.99
2019-01-30T04:08:44.922Z,99.99
2019-01-30T04:09:44.945Z,99.99
2019-01-30T04:10:44.895Z,99.99
2019-01-30T04:11:44.915Z,99.99
2019-01-30T04:12:44.977Z,99.99
2019-01-30T04:13:44.885Z,99.99
2019-01-30T04:14:44.852Z,99.99
2019-01-30T04:15:44.860Z,99.99
2019-01-30T04:16:44.816Z,99.99
2019-01-30T04:17:44.809Z,99.99
2019-01-30T04:18:44.790Z,99.99
2019-01-30T04:19:44.780Z,99.99
2019-01-30T04:20:44.766Z,99.99
2019-01-30T04:21:44.758Z,99.99
2019-01-30T04:22:44.747Z,99.99
2019-01-30T04:23:44.746Z,99.99
2019-01-30T04:24:44.721Z,99.99
2019-01-30T04:25:44.708Z,99.99
2019-01-30T04:26:44.694Z,99.99
2019-01-30T04:27:44.680Z,99.99
2019-01-30T04:28:44.666Z,99.99
2019-01-30T04:29:44.660Z,99.99
2019-01-30T04:30:44.667Z,99.99
2019-01-30T04:31:44.640Z,99.99
2019-01-30T04:32:44.664Z,99.99
2019-01-30T04:33:44.616Z,99.99
2019-01-30T04:34:44.636Z,99.99
2019-01-30T04:35:44.582Z,99.99
2019-01-30T04:36:44.586Z,99.99
2019-01-30T04:37:44.559Z,99.99
2019-01-30T04:38:44.580Z,99.99
2019-01-30T04:39:44.536Z,99.99
2019-01-30T04:40:44.531Z,99.99
2019-01-30T04:41:44.504Z,99.99
2019-01-30T04:42:44.518Z,99.99
2019-01-30T04:43:44.474Z,99.99
2019-01-30T04:44:44.475Z,99.99
2019-01-30T04:45:44.540Z,99.99
2019-01-30T04:46:44.443Z,99.99
2019-01-30T04:47:44.422Z,99.99
2019-01-30T04:48:44.437Z,99.99
2019-01-30T04:49:44.401Z,99.99
2019-01-30T04:50:44.391Z,99.99
2019-01-30T04:51:44.374Z,99.99
2019-01-30T04:52:44.364Z,99.99
2019-01-30T04:53:44.347Z,99.99
2019-01-30T04:54:44.337Z,99.99
2019-01-30T04:55:44.324Z,99.99
2019-01-30T04:56:44.330Z,99.99
2019-01-30T04:57:44.304Z,99.99
2019-01-30T04:58:44.301Z,99.99
2019-01-30T04:59:44.272Z,99.99
2019-01-30T05:00:44.265Z,99.99
2019-01-30T05:01:49.612Z,99.99
2019-01-30T05:02:44.247Z,99.99
2019-01-30T05:03:44.227Z,99.99
2019-01-30T05:04:44.212Z,99.99
2019-01-30T05:05:44.238Z,99.99
2019-01-30T05:06:44.200Z,99.99
2019-01-30T05:07:44.201Z,99.99
2019-01-30T05:08:44.165Z,99.99
2019-01-30T05:09:44.271Z,99.99
2019-01-30T05:10:44.131Z,99.99
2019-01-30T05:11:44.160Z,99.99
2019-01-30T05:12:44.121Z,99.99
2019-01-30T05:13:44.094Z,99.99
2019-01-30T05:14:44.088Z,99.99
2019-01-30T05:15:44.089Z,99.99
2019-01-30T05:16:44.094Z,99.99
2019-01-30T05:17:44.055Z,99.99
2019-01-30T05:18:44.028Z,99.99
2019-01-30T05:19:44.046Z,99.99
2019-01-30T05:20:44.008Z,99.99
2019-01-30T05:21:44.018Z,99.99
2019-01-30T05:22:43.991Z,99.99
2019-01-30T05:23:43.994Z,99.99
2019-01-30T05:24:43.957Z,99.99
2019-01-30T05:25:43.963Z,99.99
2019-01-30T05:26:43.928Z,99.99
2019-01-30T05:27:43.936Z,99.99
2019-01-30T05:28:43.901Z,99.99
2019-01-30T05:29:43.892Z,99.99
2019-01-30T05:30:43.884Z,99.99
2019-01-30T05:31:43.865Z,99.99
2019-01-30T05:32:43.855Z,99.99
2019-01-30T05:33:43.857Z,99.99
2019-01-30T05:34:43.828Z,99.99
2019-01-30T05:35:43.813Z,99.99
2019-01-30T05:36:43.802Z,99.99
2019-01-30T05:37:43.793Z,99.99
2019-01-30T05:38:43.784Z,99.99
2019-01-30T05:39:43.762Z,99.99
2019-01-30T05:40:43.753Z,99.99
2019-01-30T05:41:43.742Z,99.99
2019-01-30T05:42:43.725Z,99.99
2019-01-30T05:43:43.718Z,99.99
2019-01-30T05:44:43.699Z,99.99
2019-01-30T05:45:43.690Z,99.99
2019-01-30T05:46:43.678Z,99.99
2019-01-30T05:47:43.672Z,99.99
2019-01-30T05:48:43.647Z,99.99
2019-01-30T05:49:43.636Z,99.99
2019-01-30T05:50:43.623Z,99.99
2019-01-30T05:51:43.612Z,99.99
2019-01-30T05:52:43.597Z,99.99
2019-01-30T05:53:43.583Z,99.99
2019-01-30T05:54:43.572Z,99.99
2019-01-30T05:55:43.557Z,99.99
2019-01-30T05:56:43.547Z,99.99
2019-01-30T05:57:43.532Z,99.99
2019-01-30T05:58:43.538Z,99.99
2019-01-30T05:59:43.509Z,99.99
2019-01-30T06:00:43.493Z,99.99
2019-01-30T06:01:43.482Z,99.99
2019-01-30T06:02:43.468Z,99.99
2019-01-30T06:03:43.454Z,99.99
2019-01-30T06:04:43.447Z,99.99
2019-01-30T06:05:43.428Z,99.99
2019-01-30T06:06:43.414Z,99.99
2019-01-30T06:07:43.401Z,99.99
2019-01-30T06:08:43.386Z,99.99
2019-01-30T06:09:43.378Z,99.99
2019-01-30T06:10:43.365Z,99.99
2019-01-30T06:11:43.351Z,99.99
2019-01-30T06:12:43.337Z,99.99
2019-01-30T06:13:43.325Z,99.99
2019-01-30T06:14:43.309Z,99.99
2019-01-30T06:15:43.297Z,99.99
2019-01-30T06:16:43.287Z,99.99
2019-01-30T06:17:43.271Z,99.99
2019-01-30T06:18:43.257Z,99.99
2019-01-30T06:19:43.247Z,99.99
2019-01-30T06:20:43.234Z,99.99
2019-01-30T06:21:43.219Z,99.99
2019-01-30T06:22:43.208Z,99.99
2019-01-30T06:23:43.194Z,99.99
2019-01-30T06:24:43.179Z,99.99
2019-01-30T06:25:43.171Z,99.99
2019-01-30T06:26:43.152Z,99.99
2019-01-30T06:27:43.141Z,99.99
2019-01-30T06:28:43.129Z,99.99
2019-01-30T06:29:43.146Z,99.99
2019-01-30T06:30:43.105Z,99.99
2019-01-30T06:31:43.091Z,99.99
2019-01-30T06:32:43.076Z,99.99
2019-01-30T06:33:43.063Z,99.99
2019-01-30T06:34:43.048Z,99.99
2019-01-30T06:35:43.064Z,99.99
2019-01-30T06:36:43.028Z,99.99
2019-01-30T06:37:43.014Z,99.99
2019-01-30T06:38:42.993Z,99.99
2019-01-30T06:39:43.012Z,99.99
2019-01-30T06:40:42.969Z,99.99
2019-01-30T06:41:42.961Z,99.99
2019-01-30T06:42:42.948Z,99.99
2019-01-30T06:43:42.929Z,99.99
2019-01-30T06:44:42.927Z,99.99
2019-01-30T06:45:42.920Z,99.99
2019-01-30T06:46:42.891Z,99.99
2019-01-30T06:47:42.896Z,99.99
2019-01-30T06:48:42.887Z,99.99
2019-01-30T06:49:42.853Z,99.99
2019-01-30T06:50:42.860Z,99.99
2019-01-30T06:51:42.827Z,99.99
2019-01-30T06:52:42.831Z,99.99
2019-01-30T06:53:42.802Z,99.99
2019-01-30T06:54:42.790Z,99.99
2019-01-30T06:55:42.780Z,99.99
2019-01-30T06:56:42.762Z,99.99
2019-01-30T06:57:42.751Z,99.99
2019-01-30T06:58:44.214Z,99.99
2019-01-30T06:59:42.937Z,99.99
2019-01-30T07:01:37.685Z,99.99
2019-01-30T07:02:37.136Z,99.99
2019-01-30T07:04:31.498Z,99.99
2019-01-30T07:05:31.484Z,99.99
2019-01-30T07:07:30.622Z,99.99
2019-01-30T07:08:30.257Z,99.99
2019-01-30T07:10:23.639Z,99.99
2019-01-30T07:11:23.650Z,99.99
2019-01-30T07:13:18.055Z,99.99
2019-01-30T07:14:17.955Z,99.99
2019-01-30T07:16:12.307Z,99.99
2019-01-30T07:17:12.290Z,99.99
2019-01-30T07:19:06.641Z,99.99
2019-01-30T07:20:06.633Z,99.99
2019-01-30T07:22:00.973Z,99.99
2019-01-30T07:23:00.969Z,99.99
2019-01-30T07:24:00.948Z,99.99
2019-01-30T07:25:00.937Z,99.99
2019-01-30T07:26:00.938Z,99.99
2019-01-30T07:27:00.948Z,99.99
2019-01-30T07:28:00.900Z,99.99
2019-01-30T07:29:00.882Z,99.99
2019-01-30T07:30:00.870Z,99.99
2019-01-30T07:31:00.856Z,99.99
2019-01-30T07:32:00.864Z,99.99
2019-01-30T07:33:00.831Z,99.99
2019-01-30T07:34:00.823Z,99.99
2019-01-30T07:35:00.806Z,99.99
2019-01-30T07:36:00.792Z,99.99
2019-01-30T07:37:00.779Z,99.99
2019-01-30T07:38:00.770Z,99.99
2019-01-30T07:39:00.753Z,99.99
2019-01-30T07:40:00.860Z,99.99
2019-01-30T07:41:00.724Z,99.99
2019-01-30T07:42:00.716Z,99.99
2019-01-30T07:43:00.710Z,99.99
2019-01-30T07:44:00.687Z,99.99
2019-01-30T07:45:00.675Z,99.99
2019-01-30T07:46:00.833Z,99.99
2019-01-30T07:47:00.650Z,99.99
2019-01-30T07:48:00.635Z,99.99
2019-01-30T07:49:00.624Z,99.99
2019-01-30T07:50:00.611Z,99.99
2019-01-30T07:51:00.618Z,99.99
2019-01-30T07:52:00.583Z,99.99
2019-01-30T07:53:00.569Z,99.99
2019-01-30T07:54:00.557Z,99.99
2019-01-30T07:55:00.543Z,99.99
2019-01-30T07:56:00.530Z,99.99
2019-01-30T07:57:00.517Z,99.99
2019-01-30T07:58:00.504Z,99.99
2019-01-30T07:59:00.493Z,99.99
2019-01-30T08:00:00.521Z,99.99
2019-01-30T08:01:00.465Z,99.99
2019-01-30T08:02:00.453Z,99.99
2019-01-30T08:03:00.439Z,99.99
2019-01-30T08:04:00.427Z,99.99
2019-01-30T08:05:00.418Z,99.99
2019-01-30T08:06:00.402Z,99.99
2019-01-30T08:07:02.857Z,99.99
2019-01-30T08:08:00.378Z,99.99
2019-01-30T08:09:00.358Z,99.99
2019-01-30T08:10:00.423Z,99.99
2019-01-30T08:11:00.341Z,99.99
2019-01-30T08:12:00.318Z,99.99
2019-01-30T08:13:00.314Z,99.99
2019-01-30T08:14:01.979Z,99.99
2019-01-30T08:15:00.282Z,99.99
2019-01-30T08:16:00.265Z,99.99
2019-01-30T08:17:00.259Z,99.99
2019-01-30T08:18:00.243Z,99.99
2019-01-30T08:19:00.230Z,99.99
2019-01-30T08:20:00.330Z,99.99
2019-01-30T08:21:00.206Z,99.99
2019-01-30T08:22:00.191Z,99.99
2019-01-30T08:23:00.178Z,99.99
2019-01-30T08:24:00.193Z,99.99
2019-01-30T08:25:00.676Z,99.99
2019-01-30T08:26:00.137Z,99.99
2019-01-30T08:27:00.219Z,99.99
2019-01-30T08:28:00.466Z,99.99
2019-01-30T08:29:00.264Z,99.99
2019-01-30T08:30:00.398Z,99.99
2019-01-30T08:31:00.209Z,99.99
2019-01-30T08:32:00.583Z,99.99
2019-01-30T08:33:04.542Z,99.99
2019-01-30T08:34:00.036Z,99.99
2019-01-30T08:35:00.021Z,99.99
2019-01-30T08:36:00.009Z,99.99
2019-01-30T08:36:59.999Z,99.99
2019-01-30T08:37:59.986Z,99.99
2019-01-30T08:38:59.977Z,99.99
2019-01-30T08:39:59.975Z,99.99
2019-01-30T08:40:59.949Z,99.99
2019-01-30T08:41:59.936Z,99.99
2019-01-30T08:42:59.923Z,99.99
2019-01-30T08:43:59.914Z,99.99
2019-01-30T08:44:59.898Z,99.99
2019-01-30T08:45:59.888Z,99.99
2019-01-30T08:46:59.976Z,99.99
2019-01-30T08:47:59.865Z,99.99
2019-01-30T08:48:59.850Z,99.99
2019-01-30T08:49:59.844Z,99.99
2019-01-30T08:50:59.822Z,99.99
2019-01-30T08:51:59.809Z,99.99
2019-01-30T08:52:59.801Z,99.99
2019-01-30T08:53:59.784Z,99.99
2019-01-30T08:54:59.773Z,99.99
2019-01-30T08:55:59.762Z,99.99
2019-01-30T08:56:59.787Z,99.99
2019-01-30T08:57:59.739Z,99.99
2019-01-30T08:58:59.727Z,99.99
2019-01-30T08:59:59.728Z,99.99
2019-01-30T09:00:59.705Z,99.99
2019-01-30T09:01:59.683Z,99.99
2019-01-30T09:02:59.679Z,99.99
2019-01-30T09:03:59.658Z,99.99
2019-01-30T09:04:59.664Z,99.99
2019-01-30T09:05:59.627Z,99.99
2019-01-30T09:06:59.615Z,99.99
2019-01-30T09:07:59.607Z,99.99
2019-01-30T09:08:59.589Z,99.99
2019-01-30T09:09:59.582Z,99.99
2019-01-30T09:10:59.567Z,99.99
2019-01-30T09:11:59.549Z,99.99
2019-01-30T09:12:59.545Z,99.99
2019-01-30T09:13:59.523Z,99.99
2019-01-30T09:14:59.513Z,99.99
2019-01-30T09:15:59.500Z,99.99
2019-01-30T09:16:59.487Z,99.99
2019-01-30T09:17:59.474Z,99.99
2019-01-30T09:19:00.424Z,99.99
2019-01-30T09:19:59.449Z,99.99
2019-01-30T09:20:59.515Z,99.99
2019-01-30T09:21:59.423Z,99.99
2019-01-30T09:22:59.417Z,99.99
2019-01-30T09:23:59.415Z,99.99
2019-01-30T09:24:59.385Z,99.99
2019-01-30T09:25:59.387Z,99.99
2019-01-30T09:26:59.358Z,99.99
2019-01-30T09:27:59.351Z,99.99
2019-01-30T09:28:59.351Z,99.99
2019-01-30T09:29:59.323Z,99.99
2019-01-30T09:30:59.314Z,99.99
2019-01-30T09:31:59.302Z,99.99
2019-01-30T09:32:59.323Z,99.99
2019-01-30T09:33:59.297Z,99.99
2019-01-30T09:34:59.265Z,99.99
2019-01-30T09:35:59.251Z,99.99
2019-01-30T09:36:59.239Z,99.99
2019-01-30T09:37:59.250Z,99.99
2019-01-30T09:38:59.221Z,99.99
2019-01-30T09:39:59.205Z,99.99
2019-01-30T09:40:59.245Z,99.99
2019-01-30T09:41:59.183Z,98.96
2019-01-30T09:42:59.206Z,98.20
2019-01-30T09:43:59.158Z,97.63
2019-01-30T09:44:59.157Z,98.11
2019-01-30T09:45:59.133Z,95.93
2019-01-30T09:46:59.120Z,97.63
2019-01-30T09:47:59.108Z,98.30
2019-01-30T09:48:59.106Z,99.62
2019-01-30T09:49:59.093Z,99.43
2019-01-30T09:50:59.074Z,99.99
2019-01-30T09:51:59.088Z,99.99
2019-01-30T09:52:59.051Z,99.99
2019-01-30T09:53:59.040Z,99.99
2019-01-30T09:54:59.029Z,99.39
2019-01-30T09:55:59.018Z,98.54
2019-01-30T09:56:59.074Z,96.83
2019-01-30T09:57:58.993Z,96.92
2019-01-30T09:58:58.983Z,93.80
2019-01-30T09:59:58.969Z,95.31
2019-01-30T10:00:58.959Z,96.92
2019-01-30T10:01:58.947Z,95.12
2019-01-30T10:02:58.943Z,93.99
2019-01-30T10:03:58.921Z,94.18
2019-01-30T10:04:58.912Z,95.12
2019-01-30T10:05:58.910Z,94.74
2019-01-30T10:06:58.889Z,93.70
2019-01-30T10:07:58.882Z,92.66
2019-01-30T10:08:58.868Z,90.10
2019-01-30T10:09:58.910Z,89.06
2019-01-30T10:10:58.848Z,89.44
2019-01-30T10:11:58.836Z,87.45
2019-01-30T10:12:58.822Z,88.02
2019-01-30T10:13:58.816Z,89.44
2019-01-30T10:14:58.808Z,85.93
2019-01-30T10:15:58.788Z,85.65
2019-01-30T10:16:58.781Z,84.42
2019-01-30T10:17:58.775Z,85.55
2019-01-30T10:18:58.755Z,85.65
2019-01-30T10:19:58.746Z,85.55
2019-01-30T10:20:58.731Z,85.31
2019-01-30T10:21:58.733Z,83.13
2019-01-30T10:22:58.714Z,81.33
2019-01-30T10:23:58.705Z,80.34
2019-01-30T10:24:58.690Z,80.19
2019-01-30T10:25:58.683Z,80.48
2019-01-30T10:26:58.668Z,81.24
2019-01-30T10:27:58.660Z,80.38
2019-01-30T10:28:58.648Z,78.77
2019-01-30T10:29:58.880Z,79.53
2019-01-30T10:30:58.624Z,79.34
2019-01-30T10:31:58.614Z,78.20
2019-01-30T10:32:58.605Z,78.67
2019-01-30T10:33:58.595Z,78.39
2019-01-30T10:34:58.586Z,76.31
2019-01-30T10:35:58.571Z,75.74
2019-01-30T10:36:58.565Z,75.55
2019-01-30T10:37:58.550Z,74.98
2019-01-30T10:38:58.541Z,76.03
2019-01-30T10:39:58.529Z,75.64
2019-01-30T10:40:58.515Z,76.21
2019-01-30T10:41:58.512Z,76.87
2019-01-30T10:42:58.530Z,76.40
2019-01-30T10:43:58.485Z,74.88
2019-01-30T10:44:58.475Z,74.03
2019-01-30T10:45:58.463Z,74.03
2019-01-30T10:46:58.452Z,73.75
2019-01-30T10:47:58.442Z,73.75
2019-01-30T10:48:58.440Z,73.46
2019-01-30T10:49:58.423Z,72.89
2019-01-30T10:50:58.424Z,72.23
2019-01-30T10:51:58.398Z,71.66
2019-01-30T10:52:58.394Z,71.41
2019-01-30T10:53:58.379Z,71.22
2019-01-30T10:54:58.370Z,70.75
2019-01-30T10:55:58.359Z,71.13
2019-01-30T10:56:58.347Z,70.84
2019-01-30T10:57:58.336Z,69.80
2019-01-30T10:58:58.324Z,69.33
2019-01-30T10:59:58.316Z,70.75
2019-01-30T11:00:58.307Z,70.84
2019-01-30T11:01:58.296Z,70.37
2019-01-30T11:02:58.294Z,69.42
2019-01-30T11:03:58.275Z,69.52
2019-01-30T11:04:58.281Z,69.71
2019-01-30T11:05:58.258Z,69.52
2019-01-30T11:06:58.245Z,69.33
2019-01-30T11:07:58.234Z,68.19
2019-01-30T11:08:58.226Z,67.81
2019-01-30T11:09:58.212Z,67.62
2019-01-30T11:11:07.293Z,67.52
2019-01-30T11:11:58.236Z,67.90
2019-01-30T11:12:58.183Z,67.62
2019-01-30T11:13:58.194Z,67.71
2019-01-30T11:14:58.170Z,67.62
2019-01-30T11:15:58.231Z,67.24
2019-01-30T11:16:58.143Z,67.05
2019-01-30T11:17:58.191Z,66.96
2019-01-30T11:18:58.123Z,66.96
2019-01-30T11:19:58.116Z,66.77
2019-01-30T11:20:58.103Z,66.77
2019-01-30T11:21:58.092Z,66.58
2019-01-30T11:22:58.092Z,66.58
2019-01-30T11:23:58.112Z,66.77
2019-01-30T11:24:58.062Z,66.58
2019-01-30T11:25:58.067Z,66.58
2019-01-30T11:26:58.059Z,67.05
2019-01-30T11:27:58.039Z,67.33
2019-01-30T11:28:58.034Z,67.14
2019-01-30T11:29:58.033Z,67.62
2019-01-30T11:30:58.005Z,67.24
2019-01-30T11:31:57.995Z,67.14
2019-01-30T11:32:57.991Z,67.24
2019-01-30T11:34:07.071Z,67.14
2019-01-30T11:34:57.970Z,67.14
2019-01-30T11:35:57.953Z,66.77
2019-01-30T11:37:00.118Z,66.77
2019-01-30T11:37:57.936Z,66.39
2019-01-30T11:38:57.924Z,66.29
2019-01-30T11:39:57.916Z,66.77
2019-01-30T11:40:57.906Z,66.77
2019-01-30T11:41:57.895Z,66.29
2019-01-30T11:42:57.884Z,66.48
2019-01-30T11:43:57.876Z,66.39
2019-01-30T11:44:57.867Z,66.39
2019-01-30T11:45:57.857Z,66.67
2019-01-30T11:46:57.845Z,66.48
2019-01-30T11:47:57.836Z,66.39
2019-01-30T11:48:57.829Z,66.39
2019-01-30T11:49:58.020Z,66.48
2019-01-30T11:50:57.811Z,65.82
2019-01-30T11:51:57.797Z,66.01
2019-01-30T11:52:57.785Z,66.39
2019-01-30T11:53:57.773Z,66.39
2019-01-30T11:54:57.766Z,66.29
2019-01-30T11:55:57.756Z,66.20
2019-01-30T11:56:57.746Z,66.20
2019-01-30T11:57:57.737Z,65.34
2019-01-30T11:58:57.726Z,64.81
2019-01-30T11:59:57.733Z,64.78
2019-01-30T12:00:57.709Z,64.68
2019-01-30T12:01:58.366Z,63.92
2019-01-30T12:02:57.689Z,64.11
2019-01-30T12:03:57.677Z,64.49
2019-01-30T12:04:57.674Z,64.52
2019-01-30T12:05:57.662Z,64.59
2019-01-30T12:06:57.652Z,64.33
2019-01-30T12:07:57.637Z,64.62
2019-01-30T12:08:57.628Z,64.52
2019-01-30T12:09:57.620Z,64.52
2019-01-30T12:10:57.613Z,64.52
2019-01-30T12:11:57.599Z,64.52
2019-01-30T12:12:57.587Z,63.86
2019-01-30T12:13:57.588Z,63.57
2019-01-30T12:14:57.588Z,63.76
2019-01-30T12:15:57.562Z,63.76
2019-01-30T12:16:57.555Z,63.48
2019-01-30T12:17:57.565Z,63.95
2019-01-30T12:18:57.526Z,63.54
2019-01-30T12:19:57.516Z,63.57
2019-01-30T12:20:57.514Z,63.57
2019-01-30T12:21:57.523Z,63.86
2019-01-30T12:22:57.492Z,64.40
2019-01-30T12:23:57.487Z,64.14
2019-01-30T12:24:57.477Z,64.11
2019-01-30T12:25:57.461Z,64.20
2019-01-30T12:26:57.458Z,64.49
2019-01-30T12:27:57.442Z,63.95
2019-01-30T12:28:57.433Z,63.92
2019-01-30T12:29:57.426Z,63.86
2019-01-30T12:30:57.410Z,64.52
2019-01-30T12:31:57.405Z,64.62
2019-01-30T12:32:57.390Z,64.43
2019-01-30T12:33:59.102Z,64.33
2019-01-30T12:34:57.376Z,64.62
2019-01-30T12:35:57.375Z,63.95
2019-01-30T12:36:57.348Z,63.86
2019-01-30T12:37:57.350Z,64.52
2019-01-30T12:38:57.337Z,64.14
2019-01-30T12:39:57.325Z,64.43
2019-01-30T12:40:57.316Z,64.52
2019-01-30T12:41:57.305Z,64.62
2019-01-30T12:42:57.295Z,63.48
2019-01-30T12:43:57.282Z,63.39
2019-01-30T12:44:57.273Z,63.29
2019-01-30T12:45:57.276Z,63.39
2019-01-30T12:46:57.260Z,63.67
2019-01-30T12:47:57.244Z,64.33
2019-01-30T12:48:57.231Z,64.81
2019-01-30T12:49:57.247Z,64.62
2019-01-30T12:50:57.215Z,64.24
2019-01-30T12:51:57.206Z,63.57
2019-01-30T12:52:57.199Z,63.57
2019-01-30T12:53:57.184Z,63.95
2019-01-30T12:54:57.192Z,63.76
2019-01-30T12:55:57.164Z,63.67
2019-01-30T12:56:57.163Z,63.01
2019-01-30T12:57:57.157Z,63.10
2019-01-30T12:58:57.137Z,62.15
2019-01-30T12:59:57.130Z,62.24